Time;durP1;ratioP1;P1;durP2;ratioP2;P2;SDS_P1;SDS_P2;PMS_P1;PMS_P2;Temp;Humidity;BMP_temperature;BMP_pressure;BME280_temperature;BME280_humidity;BME280_pressure;Samples;Min_cycle;Max_cycle;Signal;HPM_P1;HPM_P2
2022/01/12 00:01:23;;;;;;;3.17;2.80;;;0.00;99.90;;;;;;5075743;28;20247;-69
2022/01/12 00:03:48;;;;;;;2.47;2.27;;;0.00;99.90;;;;;;5061630;28;20607;-69
2022/01/12 00:06:14;;;;;;;1.70;1.60;;;-0.10;99.90;;;;;;5055845;28;20175;-69
2022/01/12 00:08:40;;;;;;;2.57;2.10;;;-0.10;99.90;;;;;;5056371;28;20174;-69
2022/01/12 00:11:06;;;;;;;1.98;1.88;;;-0.20;99.90;;;;;;5055403;28;20918;-70
2022/01/12 00:13:34;;;;;;;0.90;0.90;;;-0.20;99.90;;;;;;5056110;28;20214;-69
2022/01/12 00:16:01;;;;;;;3.00;2.30;;;-0.20;99.90;;;;;;5055746;28;20408;-69
2022/01/12 00:18:27;;;;;;;2.00;1.90;;;-0.30;99.90;;;;;;5055578;28;20298;-70
2022/01/12 00:20:54;;;;;;;1.30;1.30;;;-0.30;99.90;;;;;;5054424;28;20193;-70
2022/01/12 00:23:20;;;;;;;2.72;2.53;;;-0.30;99.90;;;;;;5053738;28;20649;-69
2022/01/12 00:25:59;;;;;;;2.23;2.03;;;-0.30;99.90;;;;;;5055443;28;20170;-69
2022/01/12 00:33:55;;;;;;;2.78;2.22;;;-0.40;99.90;;;;;;5055971;28;20213;-70
2022/01/12 00:36:21;;;;;;;1.77;1.27;;;-0.30;99.90;;;;;;5055219;28;20166;-69
2022/01/12 00:38:47;;;;;;;5.33;3.07;;;-0.30;99.90;;;;;;5055723;28;20165;-69
2022/01/12 00:41:17;;;;;;;3.00;2.70;;;-0.30;99.90;;;;;;5055647;28;20168;-69
2022/01/12 00:43:45;;;;;;;2.42;2.28;;;-0.30;99.90;;;;;;5060883;28;20307;-68
2022/01/12 00:46:14;;;;;;;2.38;2.28;;;-0.30;99.90;;;;;;5063950;28;20209;-68
2022/01/12 00:48:40;;;;;;;4.38;2.65;;;-0.30;99.90;;;;;;5055474;28;20170;-68
2022/01/12 00:51:06;;;;;;;5.38;2.45;;;-0.30;99.90;;;;;;5054927;28;20165;-70
2022/01/12 00:53:32;;;;;;;2.60;2.40;;;-0.30;99.90;;;;;;5055313;28;20169;-69
2022/01/12 00:55:57;;;;;;;1.90;1.57;;;-0.40;99.90;;;;;;5055908;28;20490;-69
2022/01/12 00:58:23;;;;;;;2.50;2.40;;;-0.50;99.90;;;;;;5055587;28;20202;-69
2022/01/12 01:00:48;;;;;;;3.37;2.03;;;-0.50;99.90;;;;;;5055079;28;20173;-70
2022/01/12 01:03:15;;;;;;;2.70;2.50;;;-0.50;99.90;;;;;;5062785;28;20173;-68
2022/01/12 01:05:41;;;;;;;2.25;2.10;;;-0.50;99.90;;;;;;5074941;28;20605;-69
2022/01/12 01:08:09;;;;;;;2.88;2.67;;;-0.60;99.90;;;;;;5074921;28;20193;-69
2022/01/12 01:13:07;;;;;;;2.58;2.15;;;-0.60;99.90;;;;;;5074371;28;20196;-69
2022/01/12 01:26:25;;;;;;;2.75;2.58;;;-0.70;99.90;;;;;;5076000;28;20200;-69
2022/01/12 01:28:50;;;;;;;2.23;2.13;;;-0.70;99.90;;;;;;5075146;28;20620;-69
2022/01/12 01:31:16;;;;;;;2.43;2.33;;;-0.80;99.90;;;;;;5073988;28;20161;-69
2022/01/12 01:33:42;;;;;;;2.93;2.73;;;-0.80;99.90;;;;;;5074053;28;20169;-70
2022/01/12 01:36:07;;;;;;;3.50;3.30;;;-0.80;99.90;;;;;;5074345;28;20178;-69
2022/01/12 01:38:33;;;;;;;2.27;2.17;;;-0.90;99.90;;;;;;5074432;28;20235;-69
2022/01/12 01:40:59;;;;;;;3.20;2.93;;;-0.90;99.90;;;;;;5074076;28;20624;-70
2022/01/12 01:54:13;;;;;;;1.33;1.33;;;-1.00;99.90;;;;;;5074078;28;20686;-69
2022/01/12 01:56:39;;;;;;;1.90;1.80;;;-1.10;99.90;;;;;;5073654;28;20588;-70
2022/01/12 01:59:05;;;;;;;2.37;2.17;;;-1.10;99.90;;;;;;5072497;28;20172;-69
2022/01/12 02:01:31;;;;;;;1.43;1.33;;;-1.10;99.90;;;;;;5073340;28;20923;-70
2022/01/12 02:04:01;;;;;;;1.77;1.67;;;-1.20;99.90;;;;;;5058451;28;20212;-70
2022/01/12 02:06:28;;;;;;;2.80;2.40;;;-1.20;99.90;;;;;;5052263;28;20441;-69
2022/01/12 02:08:54;;;;;;;2.80;2.50;;;-1.30;99.90;;;;;;5053556;28;20170;-69
2022/01/12 02:11:27;;;;;;;2.33;2.22;;;-1.20;99.90;;;;;;5053379;28;20532;-70
2022/01/12 02:13:53;;;;;;;4.90;2.42;;;-1.30;99.90;;;;;;5053718;28;20233;-69
2022/01/12 02:16:26;;;;;;;4.10;3.75;;;-1.30;99.90;;;;;;5053432;28;20747;-68
2022/01/12 02:35:45;;;;;;;2.83;2.60;;;-1.40;99.90;;;;;;5053309;28;20228;-68
2022/01/12 02:40:55;;;;;;;2.60;2.35;;;-1.40;99.90;;;;;;5053269;28;20524;-69
2022/01/12 02:53:52;;;;;;;3.20;3.00;;;-1.40;99.90;;;;;;5053345;28;20551;-69
2022/01/12 02:56:26;;;;;;;3.63;2.10;;;-1.30;99.90;;;;;;5051767;28;20181;-70
2022/01/12 02:58:55;;;;;;;2.60;2.45;;;-1.30;99.90;;;;;;5053510;28;20632;-70
2022/01/12 03:03:52;;;;;;;4.82;2.65;;;-1.30;99.90;;;;;;5067281;28;20217;-69
2022/01/12 03:06:22;;;;;;;1.15;1.15;;;-1.30;99.90;;;;;;5072998;28;20520;-69
2022/01/12 03:08:48;;;;;;;2.78;2.28;;;-1.30;99.90;;;;;;5072007;28;20181;-70
2022/01/12 03:11:17;;;;;;;1.63;1.60;;;-1.40;99.90;;;;;;5071645;28;20578;-69
2022/01/12 03:13:44;;;;;;;4.47;3.58;;;-1.40;99.90;;;;;;5073156;28;20165;-70
2022/01/12 03:16:22;;;;;;;2.55;2.35;;;-1.50;99.90;;;;;;5072862;28;20218;-69
2022/01/12 03:18:54;;;;;;;3.00;2.85;;;-1.50;99.90;;;;;;5072973;28;20175;-69
2022/01/12 03:21:23;;;;;;;3.55;3.33;;;-1.50;99.90;;;;;;5072603;28;20165;-70
2022/01/12 03:23:50;;;;;;;1.70;1.60;;;-1.60;99.90;;;;;;5073032;28;20507;-69
2022/01/12 03:26:16;;;;;;;2.63;2.08;;;-1.50;99.90;;;;;;5073186;28;20167;-70
2022/01/12 03:28:43;;;;;;;2.63;2.30;;;-1.60;99.90;;;;;;5071633;28;20162;-68
2022/01/12 03:31:18;;;;;;;2.40;2.20;;;-1.50;99.90;;;;;;5072732;28;20925;-70
2022/01/12 03:39:04;;;;;;;3.45;0.95;;;-1.50;99.90;;;;;;5073476;28;20234;-70
2022/01/12 03:41:34;;;;;;;2.17;2.00;;;-1.60;99.90;;;;;;5072555;28;20239;-69
2022/01/12 03:44:03;;;;;;;2.03;1.92;;;-1.60;99.90;;;;;;5073376;28;20503;-68
2022/01/12 03:46:46;;;;;;;1.77;1.67;;;-1.60;99.90;;;;;;5072781;28;20551;-69
2022/01/12 03:49:12;;;;;;;2.22;2.13;;;-1.60;99.90;;;;;;5071743;28;20169;-69
2022/01/12 03:51:38;;;;;;;1.70;1.60;;;-1.60;99.90;;;;;;5072184;28;20195;-70
2022/01/12 03:54:04;;;;;;;2.07;1.97;;;-1.60;99.90;;;;;;5073216;28;20164;-68
2022/01/12 03:56:29;;;;;;;1.23;1.10;;;-1.60;99.90;;;;;;5074609;28;20687;-69
2022/01/12 03:58:55;;;;;;;3.70;2.27;;;-1.70;99.90;;;;;;5074829;28;20409;-67
2022/01/12 04:01:21;;;;;;;3.33;2.33;;;-1.60;99.90;;;;;;5075743;28;20248;-68
2022/01/12 04:03:57;;;;;;;3.47;2.70;;;-1.70;99.90;;;;;;5061730;28;20280;-68
2022/01/12 04:09:07;;;;;;;2.67;1.88;;;-1.80;99.90;;;;;;5056288;28;20582;-69
2022/01/12 04:11:33;;;;;;;2.77;2.57;;;-1.80;99.90;;;;;;5055731;28;20265;-69
2022/01/12 04:13:58;;;;;;;2.80;1.83;;;-1.80;99.90;;;;;;5055816;28;20174;-69
2022/01/12 04:16:24;;;;;;;2.30;2.20;;;-1.80;99.90;;;;;;5055745;28;20176;-69
2022/01/12 04:18:49;;;;;;;1.90;1.80;;;-1.80;99.90;;;;;;5055655;28;20245;-68
2022/01/12 04:21:17;;;;;;;2.07;1.97;;;-1.80;99.90;;;;;;5055423;28;20181;-70
2022/01/12 04:23:43;;;;;;;3.53;2.95;;;-1.90;99.90;;;;;;5055860;28;20173;-70
2022/01/12 04:26:12;;;;;;;2.70;2.60;;;-1.90;99.90;;;;;;5054199;28;20173;-69
2022/01/12 04:28:40;;;;;;;2.88;2.63;;;-1.90;99.90;;;;;;5054166;28;20169;-69
2022/01/12 04:31:06;;;;;;;3.75;2.13;;;-1.90;99.90;;;;;;5054977;28;20218;-70
2022/01/12 04:33:33;;;;;;;2.60;1.65;;;-2.00;99.90;;;;;;5055363;28;20173;-68
2022/01/12 04:35:59;;;;;;;1.10;1.10;;;-2.00;99.90;;;;;;5055229;28;20173;-69
2022/01/12 04:38:27;;;;;;;1.87;1.77;;;-2.00;99.90;;;;;;5055225;28;20211;-69
2022/01/12 04:40:53;;;;;;;3.63;2.55;;;-2.10;99.90;;;;;;5055336;28;20170;-69
2022/01/12 04:43:21;;;;;;;3.67;3.37;;;-2.10;99.90;;;;;;5054932;28;20165;-69
2022/01/12 04:50:45;;;;;;;0.90;0.90;;;-2.10;99.90;;;;;;5055197;28;20169;-69
2022/01/12 04:53:13;;;;;;;2.20;2.10;;;-2.10;99.90;;;;;;5053362;28;20177;-67
2022/01/12 04:55:39;;;;;;;1.63;1.52;;;-2.20;99.90;;;;;;5055192;28;20173;-68
2022/01/12 04:58:06;;;;;;;4.18;3.80;;;-2.20;99.90;;;;;;5054795;28;20268;-68
2022/01/12 05:00:33;;;;;;;1.13;1.13;;;-2.20;99.90;;;;;;5055305;28;20200;-69
2022/01/12 05:13:42;;;;;;;3.90;2.72;;;-2.30;99.90;;;;;;5075175;28;20670;-68
2022/01/12 05:16:12;;;;;;;4.15;2.65;;;-2.30;99.90;;;;;;5074510;28;20252;-70
2022/01/12 05:18:38;;;;;;;2.70;2.42;;;-2.30;99.90;;;;;;5074260;28;20200;-68
2022/01/12 05:21:05;;;;;;;2.67;1.65;;;-2.30;99.90;;;;;;5074038;28;20635;-70
2022/01/12 05:23:31;;;;;;;4.30;2.97;;;-2.30;99.90;;;;;;5074190;28;20198;-68
2022/01/12 05:25:58;;;;;;;4.07;1.83;;;-2.30;99.90;;;;;;5074358;28;20171;-67
2022/01/12 05:28:26;;;;;;;3.70;3.47;;;-2.30;99.90;;;;;;5074274;28;20191;-69
2022/01/12 05:30:52;;;;;;;2.03;1.92;;;-2.20;99.90;;;;;;5072710;28;20244;-69
2022/01/12 05:33:19;;;;;;;2.15;1.95;;;-2.20;99.90;;;;;;5071853;28;20647;-69
2022/01/12 05:35:45;;;;;;;4.00;3.60;;;-2.10;99.90;;;;;;5072154;28;20180;-68
2022/01/12 05:38:14;;;;;;;4.38;3.60;;;-2.20;99.90;;;;;;5072107;28;20200;-70
2022/01/12 05:40:41;;;;;;;3.78;3.47;;;-2.10;99.90;;;;;;5072185;28;20200;-69
2022/01/12 05:43:08;;;;;;;3.45;3.15;;;-2.20;99.90;;;;;;5071883;28;20531;-69
2022/01/12 05:45:37;;;;;;;1.67;1.50;;;-2.10;99.90;;;;;;5072988;28;20522;-67
2022/01/12 05:50:34;;;;;;;1.98;1.90;;;-2.10;99.90;;;;;;5074173;28;20171;-69
2022/01/12 05:53:01;;;;;;;1.90;1.80;;;-2.10;99.90;;;;;;5073610;28;20255;-68
2022/01/12 05:55:27;;;;;;;3.80;2.30;;;-2.10;99.90;;;;;;5073868;28;20407;-68
2022/01/12 05:57:52;;;;;;;5.97;2.43;;;-2.10;99.90;;;;;;5073630;28;20564;-68
2022/01/12 06:00:21;;;;;;;2.17;2.07;;;-2.10;99.90;;;;;;5073943;28;20508;-68
2022/01/12 06:02:46;;;;;;;2.58;1.52;;;-2.10;99.90;;;;;;5067456;28;20523;-69
2022/01/12 06:05:18;;;;;;;2.67;2.50;;;-2.20;99.90;;;;;;5052322;28;20189;-69
2022/01/12 06:07:44;;;;;;;3.42;1.13;;;-2.30;99.90;;;;;;5053870;28;20846;-69
2022/01/12 06:10:10;;;;;;;1.92;1.85;;;-2.30;99.90;;;;;;5053604;28;20173;-71
2022/01/12 06:12:36;;;;;;;6.00;3.00;;;-2.30;99.90;;;;;;5053087;28;20166;-68
2022/01/12 06:15:01;;;;;;;3.00;2.80;;;-2.30;99.90;;;;;;5053682;28;20200;-68
2022/01/12 06:17:27;;;;;;;3.53;3.27;;;-2.40;99.90;;;;;;5053235;28;20611;-69
2022/01/12 06:19:54;;;;;;;7.23;2.83;;;-2.40;99.90;;;;;;5053395;28;20166;-69
2022/01/12 06:22:19;;;;;;;2.30;2.20;;;-2.40;99.90;;;;;;5053093;28;20260;-69
2022/01/12 06:24:45;;;;;;;1.60;1.50;;;-2.40;99.90;;;;;;5053723;28;20687;-68
2022/01/12 06:27:14;;;;;;;1.83;1.67;;;-2.30;99.90;;;;;;5052131;28;20204;-70
2022/01/12 06:29:50;;;;;;;4.65;2.97;;;-2.30;99.90;;;;;;5052205;28;20191;-68
2022/01/12 06:32:16;;;;;;;3.13;2.90;;;-2.40;99.90;;;;;;5051684;28;20723;-67
2022/01/12 06:34:42;;;;;;;5.93;5.10;;;-2.40;99.90;;;;;;5053457;28;20260;-69
2022/01/12 06:37:07;;;;;;;5.50;1.93;;;-2.40;99.90;;;;;;5053115;28;20806;-68
2022/01/12 06:39:33;;;;;;;4.13;2.00;;;-2.40;99.90;;;;;;5053472;28;20273;-69
2022/01/12 06:41:59;;;;;;;1.40;1.40;;;-2.30;99.90;;;;;;5052938;28;20165;-69
2022/01/12 06:44:25;;;;;;;3.60;3.13;;;-2.30;99.90;;;;;;5053294;28;20162;-68
2022/01/12 06:46:52;;;;;;;3.60;3.50;;;-2.30;99.90;;;;;;5053012;28;20423;-69
2022/01/12 06:49:18;;;;;;;1.80;1.70;;;-2.30;99.90;;;;;;5053414;28;20516;-69
2022/01/12 06:51:45;;;;;;;6.97;4.50;;;-2.30;99.90;;;;;;5052702;28;20192;-67
2022/01/12 06:54:12;;;;;;;4.13;3.83;;;-2.20;99.90;;;;;;5053191;28;20473;-70
2022/01/12 06:56:39;;;;;;;3.35;2.53;;;-2.20;99.90;;;;;;5052859;28;20663;-68
2022/01/12 06:59:05;;;;;;;4.47;4.07;;;-2.30;99.90;;;;;;5053055;28;20178;-69
2022/01/12 07:01:31;;;;;;;3.70;3.50;;;-2.30;99.90;;;;;;5052540;28;20581;-68
2022/01/12 07:03:57;;;;;;;2.70;2.30;;;-2.30;99.90;;;;;;5068380;28;20222;-68
2022/01/12 07:06:23;;;;;;;4.93;3.30;;;-2.30;99.90;;;;;;5072862;28;20161;-69
2022/01/12 07:08:49;;;;;;;2.50;2.40;;;-2.30;99.90;;;;;;5073074;28;20165;-70
2022/01/12 07:11:15;;;;;;;6.45;5.60;;;-2.30;99.90;;;;;;5072726;28;20536;-69
2022/01/12 07:13:41;;;;;;;5.72;3.28;;;-2.30;99.90;;;;;;5072998;28;20184;-69
2022/01/12 07:16:06;;;;;;;2.20;2.10;;;-2.30;99.90;;;;;;5073057;28;20169;-68
2022/01/12 07:18:32;;;;;;;3.03;2.77;;;-2.30;99.90;;;;;;5073083;28;20242;-69
2022/01/12 07:20:58;;;;;;;3.67;3.33;;;-2.30;99.90;;;;;;5072876;28;20218;-69
2022/01/12 07:23:25;;;;;;;3.03;2.40;;;-2.30;99.90;;;;;;5072742;28;20174;-69
2022/01/12 07:25:51;;;;;;;6.63;3.55;;;-2.30;99.90;;;;;;5072924;28;20635;-69
2022/01/12 07:28:17;;;;;;;6.72;4.20;;;-2.20;99.90;;;;;;5072673;28;20201;-69
2022/01/12 07:30:43;;;;;;;3.97;3.17;;;-2.20;99.90;;;;;;5074158;28;20180;-69
2022/01/12 07:33:09;;;;;;;3.97;3.67;;;-2.10;99.90;;;;;;5076424;28;20168;-69
2022/01/12 07:35:35;;;;;;;9.07;6.00;;;-2.10;99.90;;;;;;5076795;28;20409;-69
2022/01/12 07:38:00;;;;;;;3.90;3.60;;;-2.00;99.90;;;;;;5076304;28;20197;-69
2022/01/12 07:40:26;;;;;;;6.60;5.57;;;-1.90;99.90;;;;;;5076690;28;20244;-69
2022/01/12 07:42:52;;;;;;;3.03;2.43;;;-1.70;99.90;;;;;;5075923;28;20165;-69
2022/01/12 07:45:18;;;;;;;5.13;4.83;;;-1.40;99.90;;;;;;5076370;28;20215;-68
2022/01/12 07:47:44;;;;;;;4.15;3.58;;;-1.10;99.90;;;;;;5076363;28;20728;-68
2022/01/12 07:50:10;;;;;;;6.80;4.37;;;-0.90;99.90;;;;;;5076381;28;20180;-68
2022/01/12 07:52:36;;;;;;;4.80;4.32;;;-0.70;99.90;;;;;;5075827;28;20176;-69
2022/01/12 07:55:05;;;;;;;9.25;7.40;;;-0.60;99.90;;;;;;5076443;28;20172;-69
2022/01/12 07:57:31;;;;;;;5.20;4.50;;;-0.60;99.90;;;;;;5076126;28;20200;-68
2022/01/12 07:59:56;;;;;;;8.77;5.28;;;-0.50;99.90;;;;;;5076161;28;20180;-68
2022/01/12 08:02:22;;;;;;;5.73;5.20;;;-0.40;99.90;;;;;;5073196;28;20173;-72
2022/01/12 08:04:48;;;;;;;4.93;4.53;;;-0.40;99.90;;;;;;5056215;28;20420;-69
2022/01/12 08:07:14;;;;;;;8.83;4.93;;;-0.30;99.90;;;;;;5056072;28;20443;-69
2022/01/12 08:09:41;;;;;;;7.37;6.37;;;-0.30;99.90;;;;;;5056021;28;20179;-70
2022/01/12 08:12:07;;;;;;;4.03;3.70;;;-0.30;99.90;;;;;;5055545;28;20173;-69
2022/01/12 08:14:33;;;;;;;6.22;5.28;;;-0.10;99.90;;;;;;5056255;28;20248;-69
2022/01/12 08:16:59;;;;;;;7.50;6.20;;;0.00;99.90;;;;;;5055616;28;20288;-70
2022/01/12 08:19:26;;;;;;;6.80;5.60;;;0.20;99.90;;;;;;5056192;28;20169;-69
2022/01/12 08:21:52;;;;;;;9.48;5.78;;;0.30;99.90;;;;;;5055624;28;20178;-69
2022/01/12 08:24:19;;;;;;;7.73;5.97;;;0.60;99.90;;;;;;5055710;28;20656;-69
2022/01/12 08:26:45;;;;;;;6.68;5.78;;;1.00;99.90;;;;;;5055604;28;20280;-69
2022/01/12 08:29:14;;;;;;;6.60;5.70;;;1.20;99.90;;;;;;5055696;28;20166;-69
2022/01/12 08:31:44;;;;;;;7.35;5.28;;;1.60;99.90;;;;;;5055099;28;20196;-69
2022/01/12 08:34:11;;;;;;;6.93;6.30;;;2.10;99.90;;;;;;5055427;28;20623;-69
2022/01/12 08:36:38;;;;;;;8.00;5.85;;;2.80;99.90;;;;;;5055446;28;20186;-69
2022/01/12 08:39:08;;;;;;;6.60;5.55;;;3.50;99.90;;;;;;5055269;28;20869;-69
2022/01/12 08:41:34;;;;;;;7.18;5.30;;;4.20;99.90;;;;;;5054186;28;20169;-69
2022/01/12 08:44:00;;;;;;;6.82;5.05;;;4.90;99.90;;;;;;5054738;28;20566;-69
2022/01/12 08:46:25;;;;;;;5.40;4.80;;;5.50;99.90;;;;;;5055161;28;20195;-70
2022/01/12 08:48:51;;;;;;;4.87;4.40;;;6.00;99.90;;;;;;5055191;28;20188;-70
2022/01/12 08:51:17;;;;;;;8.60;6.07;;;6.30;99.90;;;;;;5054635;28;20180;-68
2022/01/12 08:53:42;;;;;;;5.30;4.80;;;6.60;99.90;;;;;;5053800;28;20166;-69
2022/01/12 08:56:08;;;;;;;5.63;5.10;;;6.70;99.90;;;;;;5055004;28;20260;-69
2022/01/12 08:58:34;;;;;;;9.90;5.80;;;6.90;99.90;;;;;;5054967;28;20205;-69
2022/01/12 09:01:03;;;;;;;8.70;6.20;;;7.00;99.90;;;;;;5054715;28;20177;-71
2022/01/12 09:03:30;;;;;;;5.53;5.03;;;6.80;99.40;;;;;;5054565;28;20406;-69
2022/01/12 09:05:56;;;;;;;5.03;4.00;;;6.80;99.60;;;;;;5055030;28;20169;-69
2022/01/12 09:08:21;;;;;;;6.07;5.50;;;6.90;99.70;;;;;;5054819;28;20674;-69
2022/01/12 09:10:47;;;;;;;5.03;4.50;;;7.00;98.80;;;;;;5054663;28;20212;-69
2022/01/12 09:13:13;;;;;;;4.83;4.43;;;6.90;98.10;;;;;;5053220;28;20188;-70
2022/01/12 09:15:39;;;;;;;4.97;4.43;;;6.70;98.00;;;;;;5054787;28;20205;-69
2022/01/12 09:18:04;;;;;;;4.23;3.87;;;6.50;97.90;;;;;;5054586;28;20473;-70
2022/01/12 09:20:30;;;;;;;4.93;4.43;;;6.30;98.70;;;;;;5054949;28;20169;-69
2022/01/12 09:22:56;;;;;;;5.37;4.20;;;6.40;99.00;;;;;;5054244;28;20257;-70
2022/01/12 09:25:22;;;;;;;4.50;4.10;;;6.60;98.80;;;;;;5054648;28;20500;-70
2022/01/12 09:27:48;;;;;;;4.57;3.60;;;6.90;98.90;;;;;;5054435;28;20631;-70
2022/01/12 09:30:16;;;;;;;6.03;5.43;;;7.20;98.20;;;;;;5054496;28;20253;-70
2022/01/12 09:32:42;;;;;;;5.72;5.20;;;7.10;98.10;;;;;;5052796;28;20176;-70
2022/01/12 09:35:08;;;;;;;5.10;4.50;;;7.30;99.20;;;;;;5054247;28;20265;-70
2022/01/12 09:37:34;;;;;;;4.30;3.90;;;7.80;97.70;;;;;;5052678;28;20292;-70
2022/01/12 09:39:59;;;;;;;6.30;4.77;;;8.10;95.70;;;;;;5054666;28;20647;-69
2022/01/12 09:42:25;;;;;;;5.57;5.07;;;8.30;95.50;;;;;;5053975;28;20173;-69
2022/01/12 09:44:51;;;;;;;5.20;4.37;;;8.70;95.70;;;;;;5054319;28;20171;-70
2022/01/12 09:47:17;;;;;;;6.67;4.97;;;8.90;94.90;;;;;;5054121;28;20193;-69
2022/01/12 09:49:44;;;;;;;4.77;4.20;;;8.90;94.80;;;;;;5053406;28;20272;-69
2022/01/12 09:52:11;;;;;;;4.70;4.30;;;8.80;94.70;;;;;;5052221;28;20412;-69
2022/01/12 09:54:37;;;;;;;6.17;5.50;;;8.60;94.20;;;;;;5053544;28;20231;-69
2022/01/12 09:57:04;;;;;;;7.57;5.37;;;8.50;94.60;;;;;;5053758;28;20456;-70
2022/01/12 09:59:30;;;;;;;4.90;4.47;;;8.60;95.00;;;;;;5053820;28;20430;-69
2022/01/12 10:01:56;;;;;;;5.30;4.53;;;8.80;94.50;;;;;;5053726;28;20437;-70
2022/01/12 10:04:28;;;;;;;7.07;5.87;;;8.90;93.40;;;;;;5072377;28;20206;-70
2022/01/12 10:07:04;;;;;;;6.13;5.60;;;8.80;93.90;;;;;;5073802;28;20508;-70
2022/01/12 10:09:39;;;;;;;7.00;5.93;;;8.50;93.70;;;;;;5073675;28;20584;-69
2022/01/12 10:12:10;;;;;;;6.07;4.70;;;8.00;93.90;;;;;;5073150;28;20751;-70
2022/01/12 10:14:49;;;;;;;7.30;5.87;;;7.90;94.60;;;;;;5073724;28;20812;-70
2022/01/12 10:17:20;;;;;;;9.97;5.77;;;8.10;94.70;;;;;;5072108;28;20858;-70
2022/01/12 10:19:46;;;;;;;5.67;4.87;;;8.20;94.00;;;;;;5073733;28;20754;-71
2022/01/12 10:22:16;;;;;;;6.23;4.30;;;8.30;93.50;;;;;;5073150;28;20411;-71
2022/01/12 10:24:44;;;;;;;6.93;5.20;;;8.60;93.80;;;;;;5073297;28;20467;-70
2022/01/12 10:27:12;;;;;;;4.80;4.20;;;9.10;92.60;;;;;;5073622;28;20853;-70
2022/01/12 10:29:38;;;;;;;6.33;5.50;;;9.20;92.10;;;;;;5073192;28;20410;-69
2022/01/12 10:32:08;;;;;;;6.20;5.60;;;9.20;92.00;;;;;;5072964;28;20409;-69
2022/01/12 10:34:44;;;;;;;7.10;5.57;;;9.00;91.70;;;;;;5073262;28;20395;-70
2022/01/12 10:37:22;;;;;;;9.30;6.17;;;8.50;91.00;;;;;;5073035;28;20492;-70
2022/01/12 10:39:50;;;;;;;7.25;5.45;;;7.70;92.00;;;;;;5055231;28;20812;-69
2022/01/12 10:42:22;;;;;;;5.57;4.97;;;6.90;92.90;;;;;;5072661;28;20222;-69
2022/01/12 10:44:50;;;;;;;7.20;5.65;;;6.20;94.30;;;;;;5073529;28;20168;-70
2022/01/12 10:47:20;;;;;;;7.18;5.07;;;6.00;95.40;;;;;;5073143;28;20268;-69
2022/01/12 10:49:55;;;;;;;4.68;4.20;;;6.20;95.60;;;;;;5073131;28;20516;-70
2022/01/12 10:52:23;;;;;;;4.22;3.83;;;6.60;95.40;;;;;;5071726;28;20180;-69
2022/01/12 10:55:00;;;;;;;5.57;4.85;;;7.00;95.30;;;;;;5073530;28;20169;-70
2022/01/12 10:57:31;;;;;;;6.13;3.55;;;7.30;94.70;;;;;;5073279;28;20223;-69
2022/01/12 11:00:06;;;;;;;6.60;4.55;;;7.40;94.50;;;;;;5073321;28;20632;-70
2022/01/12 11:02:33;;;;;;;5.07;4.03;;;7.50;94.00;;;;;;5069037;28;20173;-70
2022/01/12 11:05:00;;;;;;;6.13;3.90;;;7.60;94.00;;;;;;5053231;28;20181;-70
2022/01/12 11:07:27;;;;;;;4.50;4.10;;;7.60;94.00;;;;;;5057327;28;20763;-69
2022/01/12 11:09:57;;;;;;;6.40;4.43;;;7.40;93.50;;;;;;5057283;28;20181;-70
2022/01/12 11:12:24;;;;;;;3.80;3.40;;;7.40;93.60;;;;;;5057057;28;20400;-70
2022/01/12 11:14:50;;;;;;;4.60;3.95;;;7.50;93.80;;;;;;5056913;28;20183;-70
2022/01/12 11:17:17;;;;;;;5.43;3.97;;;7.50;93.50;;;;;;5056885;28;20198;-70
2022/01/12 11:19:52;;;;;;;6.03;5.43;;;7.50;93.20;;;;;;5057295;28;20173;-69
2022/01/12 11:22:41;;;;;;;6.13;5.32;;;7.30;92.90;;;;;;5056667;28;20169;-69
2022/01/12 11:25:18;;;;;;;7.43;4.93;;;6.70;93.70;;;;;;5037449;28;20650;-68
2022/01/12 11:27:44;;;;;;;5.15;4.63;;;5.90;94.90;;;;;;5056683;28;20635;-69
2022/01/12 11:30:22;;;;;;;5.38;4.80;;;5.30;95.50;;;;;;5056669;28;20168;-69
2022/01/12 11:32:59;;;;;;;6.15;5.18;;;4.80;96.20;;;;;;5055091;28;20170;-69
2022/01/12 11:35:36;;;;;;;6.90;5.15;;;4.40;97.20;;;;;;5056588;28;20177;-69
2022/01/12 11:38:05;;;;;;;6.47;4.88;;;4.00;98.10;;;;;;5056323;28;20193;-70
2022/01/12 11:40:42;;;;;;;5.13;3.75;;;3.70;99.10;;;;;;5056470;28;20200;-68
2022/01/12 11:43:28;;;;;;;9.38;5.35;;;3.60;99.70;;;;;;5056199;28;20207;-68
2022/01/12 11:46:16;;;;;;;6.05;4.47;;;3.50;99.90;;;;;;5056640;28;20162;-68
2022/01/12 11:48:42;;;;;;;5.13;4.32;;;3.50;99.90;;;;;;5056589;28;20169;-69
2022/01/12 11:51:08;;;;;;;5.80;4.33;;;3.60;99.90;;;;;;5056060;28;20200;-68
2022/01/12 11:53:54;;;;;;;6.87;5.30;;;3.50;99.90;;;;;;5056232;28;20191;-69
2022/01/12 11:56:25;;;;;;;5.65;4.80;;;3.50;99.90;;;;;;5055263;28;20574;-70
2022/01/12 11:58:59;;;;;;;5.80;4.68;;;3.50;99.90;;;;;;5055982;28;20209;-70
2022/01/12 12:01:37;;;;;;;5.00;4.50;;;3.40;99.90;;;;;;5055535;28;20168;-69
2022/01/12 12:04:05;;;;;;;4.80;3.35;;;3.20;99.90;;;;;;5072232;28;20180;-70
2022/01/12 12:06:31;;;;;;;7.40;5.45;;;3.20;99.90;;;;;;5074620;28;20211;-70
2022/01/12 12:08:58;;;;;;;4.15;3.85;;;3.10;99.90;;;;;;5075960;28;20156;-69
2022/01/12 12:11:25;;;;;;;6.05;4.30;;;3.10;99.90;;;;;;5075438;28;20173;-70
2022/01/12 12:13:51;;;;;;;4.35;3.47;;;2.90;99.90;;;;;;5076213;28;20161;-69
2022/01/12 12:16:17;;;;;;;7.67;6.13;;;2.90;99.90;;;;;;5075574;28;20170;-69
2022/01/12 12:18:43;;;;;;;11.73;4.90;;;3.00;99.90;;;;;;5075623;28;20197;-68
2022/01/12 12:21:08;;;;;;;5.23;3.57;;;2.90;99.90;;;;;;5075679;28;20631;-68
2022/01/12 12:23:37;;;;;;;5.20;4.30;;;2.90;99.90;;;;;;5075821;28;20399;-68
2022/01/12 12:26:10;;;;;;;5.85;4.18;;;2.90;99.90;;;;;;5075610;28;20598;-69
2022/01/12 12:28:36;;;;;;;4.22;3.17;;;2.80;99.90;;;;;;5075642;28;20177;-66
2022/01/12 12:31:01;;;;;;;3.30;3.00;;;2.80;99.90;;;;;;5075449;28;20218;-70
2022/01/12 12:33:27;;;;;;;4.30;3.03;;;2.80;99.90;;;;;;5075398;28;20173;-69
2022/01/12 12:35:52;;;;;;;6.20;4.07;;;2.80;99.90;;;;;;5075479;28;20180;-68
2022/01/12 12:38:21;;;;;;;5.73;5.00;;;2.80;99.90;;;;;;5075273;28;20207;-69
2022/01/12 12:40:49;;;;;;;8.90;5.43;;;2.80;99.90;;;;;;5075888;28;20173;-68
2022/01/12 12:43:23;;;;;;;4.82;4.38;;;2.70;99.90;;;;;;5074956;28;20246;-70
2022/01/12 12:45:56;;;;;;;6.05;3.75;;;2.80;99.90;;;;;;5075574;28;20175;-68
2022/01/12 12:48:28;;;;;;;5.13;4.63;;;2.80;99.90;;;;;;5075326;28;20185;-66
2022/01/12 12:51:14;;;;;;;6.63;4.55;;;2.80;99.90;;;;;;5075217;28;20164;-69
2022/01/12 12:53:45;;;;;;;8.23;5.28;;;2.80;99.90;;;;;;5074228;28;20515;-67
2022/01/12 12:56:15;;;;;;;4.38;3.92;;;2.80;99.90;;;;;;5073885;28;20246;-69
2022/01/12 12:58:43;;;;;;;5.85;5.20;;;2.80;99.90;;;;;;5075088;28;20196;-69
2022/01/12 13:01:11;;;;;;;6.53;3.85;;;2.90;99.90;;;;;;5074720;28;20164;-65
2022/01/12 13:03:39;;;;;;;5.35;4.85;;;2.90;99.90;;;;;;5061973;28;20186;-67
2022/01/12 13:06:06;;;;;;;5.72;4.95;;;2.90;99.90;;;;;;5055146;28;20174;-66
2022/01/12 13:08:32;;;;;;;13.23;8.35;;;2.90;99.90;;;;;;5053653;28;20638;-74
2022/01/12 13:11:08;;;;;;;4.22;3.63;;;3.00;99.90;;;;;;5054692;28;20177;-66
2022/01/12 13:13:33;;;;;;;5.43;4.55;;;3.00;99.90;;;;;;5054771;28;20227;-68
2022/01/12 13:15:59;;;;;;;6.20;4.73;;;3.00;99.90;;;;;;5054806;28;20173;-69
2022/01/12 13:18:25;;;;;;;7.57;3.85;;;3.00;99.90;;;;;;5055028;28;20584;-69
2022/01/12 13:21:12;;;;;;;5.00;4.05;;;2.90;99.90;;;;;;5053359;28;20655;-68
2022/01/12 13:23:37;;;;;;;4.75;4.32;;;2.90;99.90;;;;;;5054776;28;20529;-67
2022/01/12 13:26:05;;;;;;;5.80;5.27;;;2.90;99.90;;;;;;5054673;28;20172;-68
2022/01/12 13:28:32;;;;;;;7.68;6.60;;;2.90;99.90;;;;;;5053803;28;20181;-68
2022/01/12 13:31:03;;;;;;;4.50;4.13;;;3.00;99.90;;;;;;5053514;28;20201;-69
2022/01/12 13:33:45;;;;;;;4.72;3.70;;;3.00;99.90;;;;;;5054497;28;20165;-68
2022/01/12 13:36:19;;;;;;;4.97;4.47;;;3.00;99.90;;;;;;5053283;28;20185;-67
2022/01/12 13:39:04;;;;;;;6.60;5.50;;;2.90;99.90;;;;;;5054604;28;20694;-69
2022/01/12 13:41:32;;;;;;;9.32;5.60;;;2.90;99.90;;;;;;5052922;28;20177;-67
2022/01/12 13:44:04;;;;;;;4.70;4.25;;;2.90;99.90;;;;;;5051863;28;20169;-67
2022/01/12 13:46:38;;;;;;;9.20;3.83;;;2.90;99.90;;;;;;5052484;28;20285;-68
2022/01/12 13:51:55;;;;;;;7.28;4.50;;;2.80;99.90;;;;;;5052589;28;20272;-69
2022/01/12 13:54:22;;;;;;;10.13;3.92;;;2.90;99.90;;;;;;5053233;28;20161;-68
2022/01/12 13:56:52;;;;;;;15.82;5.93;;;2.80;99.90;;;;;;5052937;28;20185;-68
2022/01/12 13:59:20;;;;;;;5.63;3.70;;;2.80;99.90;;;;;;5053694;28;20169;-68
2022/01/12 14:01:47;;;;;;;6.43;5.25;;;2.80;99.90;;;;;;5053711;28;20170;-67
2022/01/12 14:04:37;;;;;;;10.60;7.03;;;2.80;99.90;;;;;;5071485;28;20188;-67
2022/01/12 14:07:05;;;;;;;7.82;5.63;;;2.80;99.90;;;;;;5074183;28;20192;-68
2022/01/12 14:09:36;;;;;;;6.15;3.80;;;2.80;99.90;;;;;;5074518;28;20627;-68
2022/01/12 14:12:14;;;;;;;4.75;4.07;;;2.80;99.90;;;;;;5073604;28;20509;-69
2022/01/12 14:14:53;;;;;;;6.18;4.45;;;2.70;99.90;;;;;;5074122;28;20245;-67
2022/01/12 14:17:45;;;;;;;5.53;5.15;;;2.70;99.90;;;;;;5074041;28;20603;-68
2022/01/12 14:20:21;;;;;;;6.63;5.15;;;2.70;99.90;;;;;;5074232;28;20234;-68
2022/01/12 14:22:48;;;;;;;6.65;5.35;;;2.60;99.90;;;;;;5074804;28;20188;-69
2022/01/12 14:25:15;;;;;;;4.95;4.43;;;2.60;99.90;;;;;;5075874;28;20179;-69
2022/01/12 14:27:47;;;;;;;5.88;5.20;;;2.60;99.90;;;;;;5077172;28;20245;-70